Time;durP1;ratioP1;P1;durP2;ratioP2;P2;SDS_P1;SDS_P2;PMS_P1;PMS_P2;Temp;Humidity;BMP_temperature;BMP_pressure;BME280_temperature;BME280_humidity;BME280_pressure;Samples;Min_cycle;Max_cycle;Signal;HPM_P1;HPM_P2
2023/11/03 00:00:16;;;;;;;12.07;1.60;;;10.10;99.90;;;;;;5029533;28;20028;-65
2023/11/03 00:02:43;;;;;;;10.30;1.63;;;10.10;99.90;;;;;;5028035;28;20616;-66
2023/11/03 00:05:11;;;;;;;8.88;0.88;;;10.10;99.90;;;;;;5031997;28;20014;-64
2023/11/03 00:07:38;;;;;;;3.35;1.30;;;10.10;99.90;;;;;;5030415;28;20021;-66
2023/11/03 00:10:05;;;;;;;7.43;1.63;;;10.10;99.90;;;;;;5028027;28;20025;-65
2023/11/03 00:12:32;;;;;;;7.32;2.20;;;10.10;99.90;;;;;;5022076;28;20130;-66
2023/11/03 00:14:58;;;;;;;6.78;1.05;;;10.10;99.90;;;;;;5027774;28;20026;-66
2023/11/03 00:17:23;;;;;;;6.15;1.38;;;10.10;99.90;;;;;;5029007;28;20021;-64
2023/11/03 00:19:49;;;;;;;10.05;1.85;;;10.20;99.90;;;;;;5029988;28;20364;-66
2023/11/03 00:22:14;;;;;;;6.75;1.20;;;10.10;99.90;;;;;;5029916;28;20029;-65
2023/11/03 00:24:40;;;;;;;7.47;1.63;;;10.10;99.90;;;;;;5026544;28;20036;-65
2023/11/03 00:27:06;;;;;;;4.30;1.20;;;10.10;99.90;;;;;;5027441;28;20033;-65
2023/11/03 00:29:31;;;;;;;7.85;1.65;;;10.10;99.90;;;;;;5024827;28;20026;-64
2023/11/03 00:31:57;;;;;;;9.80;2.05;;;10.10;99.90;;;;;;5027041;28;20505;-66
2023/11/03 00:34:23;;;;;;;6.50;1.05;;;10.10;99.90;;;;;;5030017;28;20423;-65
2023/11/03 00:36:49;;;;;;;9.68;1.55;;;10.10;99.90;;;;;;5030762;28;20573;-65
2023/11/03 00:39:18;;;;;;;6.00;2.72;;;10.10;99.90;;;;;;5025985;28;20101;-65
2023/11/03 00:41:49;;;;;;;8.60;1.45;;;10.10;99.90;;;;;;5029056;28;20025;-66
2023/11/03 00:44:17;;;;;;;2.97;1.00;;;10.00;99.90;;;;;;5027846;28;20033;-66
2023/11/03 00:46:43;;;;;;;4.45;1.10;;;10.00;99.90;;;;;;5027399;28;20030;-66
2023/11/03 00:49:10;;;;;;;7.40;1.10;;;10.00;99.90;;;;;;5030913;28;20029;-66
2023/11/03 00:51:36;;;;;;;7.35;1.17;;;10.10;99.90;;;;;;5024835;28;20399;-65
2023/11/03 00:54:03;;;;;;;3.80;0.73;;;10.00;99.90;;;;;;5026817;28;20022;-66
2023/11/03 00:56:29;;;;;;;4.22;1.00;;;10.10;99.90;;;;;;5041052;28;20029;-67
2023/11/03 00:58:55;;;;;;;8.50;1.65;;;10.00;99.90;;;;;;5030799;28;20097;-65
2023/11/03 01:01:21;;;;;;;4.43;1.23;;;10.00;99.90;;;;;;5026862;28;20164;-66
2023/11/03 01:03:47;;;;;;;3.72;0.90;;;10.00;99.90;;;;;;5026404;28;20039;-66
2023/11/03 01:06:13;;;;;;;6.85;1.80;;;10.00;99.90;;;;;;5030868;28;20033;-67
2023/11/03 01:08:39;;;;;;;6.53;1.00;;;10.10;99.90;;;;;;5029304;28;20029;-66
2023/11/03 01:11:09;;;;;;;4.55;0.90;;;10.10;99.90;;;;;;5025472;28;20403;-66
2023/11/03 01:13:44;;;;;;;3.67;0.90;;;10.10;99.90;;;;;;5027931;28;20081;-66
2023/11/03 01:16:10;;;;;;;4.03;1.35;;;10.10;99.90;;;;;;5029880;28;20033;-67
2023/11/03 01:18:39;;;;;;;7.00;1.23;;;10.00;99.90;;;;;;5028619;28;20423;-66
2023/11/03 01:21:12;;;;;;;1.77;0.60;;;10.00;99.90;;;;;;5029734;28;20510;-67
2023/11/03 01:23:41;;;;;;;2.67;1.08;;;10.00;99.90;;;;;;5029675;28;20034;-66
2023/11/03 01:26:11;;;;;;;3.75;0.88;;;10.00;99.90;;;;;;5024642;28;20025;-67
2023/11/03 01:28:37;;;;;;;4.07;0.80;;;10.00;99.90;;;;;;5029654;28;20060;-66
2023/11/03 01:31:07;;;;;;;4.53;1.92;;;10.00;99.90;;;;;;5024810;28;20057;-67
2023/11/03 01:33:34;;;;;;;3.13;0.88;;;10.00;99.90;;;;;;5028417;28;20405;-67
2023/11/03 01:36:04;;;;;;;3.88;1.05;;;10.00;99.90;;;;;;5022991;28;20036;-66
2023/11/03 01:38:33;;;;;;;4.18;1.00;;;10.00;99.90;;;;;;5028997;28;20017;-66
2023/11/03 01:41:00;;;;;;;6.65;1.27;;;9.90;99.90;;;;;;5026478;28;20041;-67
2023/11/03 01:43:26;;;;;;;2.13;1.25;;;10.00;99.90;;;;;;5024684;28;20028;-66
2023/11/03 01:45:52;;;;;;;6.78;1.10;;;10.00;99.90;;;;;;5029864;28;20123;-66
2023/11/03 01:48:17;;;;;;;6.30;1.05;;;10.00;99.90;;;;;;5027370;28;20104;-66
2023/11/03 01:50:43;;;;;;;3.83;1.10;;;9.90;99.90;;;;;;5029480;28;20040;-66
2023/11/03 01:53:13;;;;;;;3.85;0.80;;;9.90;99.90;;;;;;5029924;28;20036;-65
2023/11/03 01:55:39;;;;;;;2.30;0.75;;;9.90;99.90;;;;;;5030005;28;20014;-66
2023/11/03 01:58:05;;;;;;;2.60;1.17;;;9.90;99.90;;;;;;5026102;28;20391;-66
2023/11/03 02:00:30;;;;;;;5.20;1.00;;;9.80;99.90;;;;;;4995778;28;20503;-67
2023/11/03 02:02:56;;;;;;;2.47;0.77;;;9.80;99.90;;;;;;5027371;28;20517;-65
2023/11/03 02:05:22;;;;;;;4.60;1.00;;;9.90;99.90;;;;;;5029854;28;20041;-66
2023/11/03 02:07:48;;;;;;;4.55;0.98;;;9.80;99.90;;;;;;5028754;28;20431;-66
2023/11/03 02:10:14;;;;;;;4.93;0.35;;;9.80;99.90;;;;;;5025192;28;20084;-66
2023/11/03 02:12:40;;;;;;;6.68;0.82;;;9.80;99.90;;;;;;5029576;28;20029;-66
2023/11/03 02:15:05;;;;;;;7.05;0.70;;;9.80;99.90;;;;;;5028400;28;20438;-66
2023/11/03 02:17:32;;;;;;;2.65;1.00;;;9.80;99.90;;;;;;5029250;28;20040;-66
2023/11/03 02:19:58;;;;;;;3.85;0.95;;;9.70;99.90;;;;;;5024818;28;20026;-66
2023/11/03 02:22:23;;;;;;;8.57;1.75;;;9.70;99.90;;;;;;5029027;28;20100;-66
2023/11/03 02:24:49;;;;;;;6.43;1.27;;;9.70;99.90;;;;;;5010345;28;20124;-66
2023/11/03 02:27:15;;;;;;;1.30;0.73;;;9.70;99.90;;;;;;5035836;28;20057;-66
2023/11/03 02:29:40;;;;;;;2.95;1.10;;;9.70;99.90;;;;;;5040439;28;20518;-66
2023/11/03 02:32:06;;;;;;;4.43;1.50;;;9.70;99.90;;;;;;5035591;28;20037;-66
2023/11/03 02:34:32;;;;;;;2.92;0.90;;;9.70;99.90;;;;;;5038117;28;20112;-66
2023/11/03 02:36:57;;;;;;;1.80;0.63;;;9.70;99.90;;;;;;5041676;28;20398;-66
2023/11/03 02:39:24;;;;;;;4.03;0.95;;;9.70;99.90;;;;;;5036517;28;20038;-67
2023/11/03 02:41:50;;;;;;;3.40;1.23;;;9.70;99.90;;;;;;5037022;28;20039;-66
2023/11/03 02:44:15;;;;;;;3.88;1.10;;;9.70;99.90;;;;;;5047575;28;20029;-67
2023/11/03 02:46:45;;;;;;;3.90;0.80;;;9.60;99.90;;;;;;5046056;28;20376;-66
2023/11/03 02:49:10;;;;;;;2.20;0.50;;;9.60;99.90;;;;;;5037763;28;20053;-67
2023/11/03 02:51:36;;;;;;;1.23;0.60;;;9.60;99.90;;;;;;5044720;28;20033;-65
2023/11/03 02:54:01;;;;;;;3.75;1.00;;;9.50;99.90;;;;;;5038302;28;20021;-67
2023/11/03 02:56:27;;;;;;;5.38;0.68;;;9.50;99.90;;;;;;5031770;28;20037;-67
2023/11/03 02:58:53;;;;;;;5.72;2.15;;;9.40;99.90;;;;;;5029542;28;20172;-65
2023/11/03 03:01:36;;;;;;;1.35;0.70;;;9.40;99.90;;;;;;5027702;28;20021;-66
2023/11/03 03:04:01;;;;;;;3.55;0.65;;;9.40;99.90;;;;;;5030400;28;20033;-66
2023/11/03 03:06:27;;;;;;;3.25;0.90;;;9.40;99.90;;;;;;5032915;28;20082;-66
2023/11/03 03:08:53;;;;;;;2.72;0.95;;;9.40;99.90;;;;;;5031023;28;20033;-66
2023/11/03 03:11:18;;;;;;;3.67;0.50;;;9.40;99.90;;;;;;5031184;28;20369;-65
2023/11/03 03:13:44;;;;;;;2.72;0.82;;;9.40;99.90;;;;;;5017426;28;20037;-66
2023/11/03 03:16:09;;;;;;;4.47;0.85;;;9.40;99.90;;;;;;5033175;28;20445;-66
2023/11/03 03:18:35;;;;;;;5.10;0.68;;;9.40;99.90;;;;;;5032100;28;20021;-66
2023/11/03 03:21:01;;;;;;;3.45;1.02;;;9.40;99.90;;;;;;5029837;28;20030;-66
2023/11/03 03:23:27;;;;;;;4.45;0.60;;;9.40;99.90;;;;;;5032085;28;20033;-65
2023/11/03 03:25:53;;;;;;;4.88;1.25;;;9.40;99.90;;;;;;5033157;28;20036;-66
2023/11/03 03:28:18;;;;;;;10.75;1.70;;;9.40;99.90;;;;;;5033121;28;20021;-66
2023/11/03 03:30:44;;;;;;;3.80;0.90;;;9.40;99.90;;;;;;5024868;28;20030;-66
2023/11/03 03:33:10;;;;;;;5.07;1.08;;;9.30;99.90;;;;;;5030249;28;20097;-66
2023/11/03 03:35:35;;;;;;;7.40;1.15;;;9.20;99.90;;;;;;5032904;28;20080;-67
2023/11/03 03:38:01;;;;;;;3.45;1.10;;;9.20;99.90;;;;;;5031526;28;20036;-66
2023/11/03 03:40:26;;;;;;;2.75;0.93;;;9.10;99.90;;;;;;5031040;28;20075;-65
2023/11/03 03:42:52;;;;;;;1.50;1.30;;;9.00;99.90;;;;;;5030066;28;20539;-65
2023/11/03 03:45:18;;;;;;;2.97;1.25;;;8.90;99.90;;;;;;5032883;28;20025;-65
2023/11/03 03:47:43;;;;;;;2.58;0.60;;;8.80;99.90;;;;;;5036134;28;20061;-66
2023/11/03 03:50:09;;;;;;;5.63;0.88;;;8.80;99.90;;;;;;5031347;28;20482;-67
2023/11/03 03:52:35;;;;;;;6.88;1.05;;;8.70;99.90;;;;;;5030747;28;20047;-67
2023/11/03 03:55:01;;;;;;;9.93;1.10;;;8.80;99.90;;;;;;5031647;28;20053;-66
2023/11/03 03:57:26;;;;;;;8.85;0.73;;;8.80;99.90;;;;;;5031157;28;20518;-66
2023/11/03 03:59:52;;;;;;;6.20;1.10;;;8.80;99.90;;;;;;5032587;28;20096;-66
2023/11/03 04:02:18;;;;;;;1.35;0.65;;;8.80;99.90;;;;;;5030081;28;20033;-65
2023/11/03 04:04:44;;;;;;;5.30;0.85;;;8.70;99.90;;;;;;5031336;28;20043;-66
2023/11/03 04:07:10;;;;;;;5.75;1.08;;;8.70;99.90;;;;;;5029707;28;20017;-66
2023/11/03 04:09:38;;;;;;;5.32;0.77;;;8.60;99.90;;;;;;5032013;28;20079;-67
2023/11/03 04:12:04;;;;;;;4.13;1.02;;;8.50;99.90;;;;;;5031831;28;20056;-66
2023/11/03 04:14:29;;;;;;;2.17;0.85;;;8.40;99.90;;;;;;5029238;28;20030;-66
2023/11/03 04:16:55;;;;;;;4.82;0.60;;;8.40;99.90;;;;;;5032230;28;20384;-66
2023/11/03 04:19:21;;;;;;;9.40;0.90;;;8.30;99.90;;;;;;5028857;28;20034;-66
2023/11/03 04:21:46;;;;;;;5.05;0.95;;;8.30;99.90;;;;;;5030612;28;20037;-66
2023/11/03 04:24:12;;;;;;;8.32;1.00;;;8.20;99.90;;;;;;5030200;28;20040;-66
2023/11/03 04:26:39;;;;;;;4.45;0.70;;;8.20;99.90;;;;;;5031880;28;20542;-66
2023/11/03 04:29:05;;;;;;;3.80;0.50;;;8.20;99.90;;;;;;5027986;28;20061;-67
2023/11/03 04:31:30;;;;;;;6.50;1.27;;;8.30;99.90;;;;;;5025299;28;20107;-66
2023/11/03 04:33:56;;;;;;;4.13;1.73;;;8.40;99.90;;;;;;5029689;28;20075;-66
2023/11/03 04:36:22;;;;;;;2.10;0.80;;;8.40;99.90;;;;;;5031545;28;20026;-66
2023/11/03 04:38:47;;;;;;;8.68;1.10;;;8.50;99.90;;;;;;5030057;28;20096;-65
2023/11/03 04:41:13;;;;;;;8.02;0.80;;;8.50;99.90;;;;;;5029824;28;20025;-65
2023/11/03 04:43:40;;;;;;;5.75;0.95;;;8.60;99.90;;;;;;5028014;28;20076;-66
2023/11/03 04:46:08;;;;;;;7.35;1.00;;;8.60;99.90;;;;;;5028231;28;20034;-66
2023/11/03 04:48:34;;;;;;;4.65;0.90;;;8.60;99.90;;;;;;5028070;28;20055;-66
2023/11/03 04:50:59;;;;;;;9.13;1.10;;;8.70;99.90;;;;;;5030059;28;20038;-66
2023/11/03 04:53:25;;;;;;;5.57;1.92;;;8.70;99.90;;;;;;5031253;28;20079;-66
2023/11/03 04:55:51;;;;;;;2.80;0.80;;;8.70;99.90;;;;;;5030446;28;20557;-66
2023/11/03 04:58:17;;;;;;;13.88;1.00;;;8.70;99.90;;;;;;5028855;28;20025;-66
2023/11/03 05:00:45;;;;;;;5.43;0.82;;;8.70;99.90;;;;;;5026928;28;20073;-66
2023/11/03 05:03:11;;;;;;;6.10;0.88;;;8.80;99.90;;;;;;5027271;28;20487;-66
2023/11/03 05:05:37;;;;;;;5.38;0.85;;;8.80;99.90;;;;;;5028667;28;20083;-66
2023/11/03 05:08:04;;;;;;;8.18;1.05;;;8.80;99.90;;;;;;5029388;28;20033;-66
2023/11/03 05:10:29;;;;;;;3.95;1.17;;;8.80;99.90;;;;;;5030662;28;20013;-65
2023/11/03 05:12:55;;;;;;;2.40;0.82;;;8.90;99.90;;;;;;5028858;28;20041;-66
2023/11/03 05:15:21;;;;;;;6.72;1.02;;;8.90;99.90;;;;;;5029176;28;20033;-65
2023/11/03 05:17:47;;;;;;;4.65;0.90;;;8.90;99.90;;;;;;5026697;28;20034;-66
2023/11/03 05:20:13;;;;;;;4.93;1.10;;;8.90;99.90;;;;;;5028241;28;20399;-67
2023/11/03 05:22:38;;;;;;;5.35;0.90;;;8.90;99.90;;;;;;5028837;28;20025;-67
2023/11/03 05:25:06;;;;;;;2.15;0.70;;;8.80;99.90;;;;;;5030407;28;20030;-66
2023/11/03 05:27:31;;;;;;;7.32;1.20;;;8.80;99.90;;;;;;5028198;28;20375;-66
2023/11/03 05:29:58;;;;;;;7.13;1.23;;;8.80;99.90;;;;;;5029241;28;20036;-67
2023/11/03 05:32:24;;;;;;;5.75;1.15;;;8.80;99.90;;;;;;5028269;28;20433;-66
2023/11/03 05:34:50;;;;;;;4.03;1.27;;;8.70;99.90;;;;;;5028178;28;20123;-66
2023/11/03 05:37:15;;;;;;;6.90;1.38;;;8.60;99.90;;;;;;5030467;28;20399;-66
2023/11/03 05:39:41;;;;;;;3.85;1.42;;;8.60;99.90;;;;;;5027583;28;20029;-65
2023/11/03 05:42:06;;;;;;;4.97;0.95;;;8.50;99.90;;;;;;5030273;28;20057;-67
2023/11/03 05:44:33;;;;;;;4.63;1.00;;;8.50;99.90;;;;;;5030485;28;20082;-66
2023/11/03 05:46:59;;;;;;;2.60;0.73;;;8.30;99.90;;;;;;5028485;28;20025;-66
2023/11/03 05:49:25;;;;;;;5.82;1.30;;;8.20;99.90;;;;;;5027400;28;20033;-65
2023/11/03 05:51:51;;;;;;;1.58;0.60;;;8.10;99.90;;;;;;5027704;28;20037;-65
2023/11/03 05:54:17;;;;;;;6.72;1.13;;;8.00;99.90;;;;;;5025135;28;21016;-65
2023/11/03 05:56:43;;;;;;;3.97;1.13;;;7.90;99.90;;;;;;5025557;28;20108;-66
2023/11/03 05:59:08;;;;;;;12.10;1.85;;;7.90;99.90;;;;;;5029000;28;20112;-66
2023/11/03 06:01:35;;;;;;;4.90;1.65;;;7.80;99.90;;;;;;5028195;28;20044;-66
2023/11/03 06:04:01;;;;;;;9.02;1.48;;;7.70;99.90;;;;;;5030374;28;20040;-65
2023/11/03 06:06:27;;;;;;;8.90;1.95;;;7.60;99.90;;;;;;5025985;28;20029;-66
2023/11/03 06:08:53;;;;;;;3.75;1.52;;;7.50;99.90;;;;;;5023110;28;20049;-66
2023/11/03 06:11:18;;;;;;;8.02;1.73;;;7.50;99.90;;;;;;5029414;28;20376;-66
2023/11/03 06:13:44;;;;;;;9.60;2.00;;;7.50;99.90;;;;;;4988764;28;20038;-66
2023/11/03 06:16:10;;;;;;;7.85;1.13;;;7.40;99.90;;;;;;5028772;28;20101;-66
2023/11/03 06:18:35;;;;;;;4.63;1.42;;;7.40;99.90;;;;;;5043192;28;20056;-67
2023/11/03 06:21:01;;;;;;;7.85;2.13;;;7.30;99.90;;;;;;5026265;28;20044;-67
2023/11/03 06:23:27;;;;;;;8.57;1.10;;;7.30;99.90;;;;;;5026424;28;20036;-67
2023/11/03 06:25:53;;;;;;;5.40;1.27;;;7.30;99.90;;;;;;5041479;28;20451;-67
2023/11/03 06:28:19;;;;;;;6.43;1.90;;;7.30;99.90;;;;;;5033030;28;20029;-66
2023/11/03 06:30:44;;;;;;;7.03;1.35;;;7.20;99.90;;;;;;5025496;28;20036;-66
2023/11/03 06:33:10;;;;;;;10.60;1.60;;;7.20;99.90;;;;;;5029575;28;20414;-65
2023/11/03 06:35:36;;;;;;;13.05;1.55;;;7.20;99.90;;;;;;5030672;28;20029;-66
2023/11/03 06:38:02;;;;;;;4.75;1.10;;;7.10;99.90;;;;;;5003612;28;20030;-68
2023/11/03 06:40:28;;;;;;;7.72;1.40;;;7.10;99.90;;;;;;5016983;28;20025;-67
2023/11/03 06:42:54;;;;;;;6.20;1.40;;;7.10;99.90;;;;;;5026953;28;20014;-68
2023/11/03 06:45:20;;;;;;;12.35;2.22;;;7.00;99.90;;;;;;5029561;28;20403;-66
2023/11/03 06:47:48;;;;;;;5.97;0.90;;;7.00;99.90;;;;;;5031029;28;20064;-66
2023/11/03 06:50:14;;;;;;;6.55;1.50;;;7.00;99.90;;;;;;5029902;28;20029;-65
2023/11/03 06:52:40;;;;;;;9.38;1.38;;;7.10;99.90;;;;;;5032362;28;20029;-65
2023/11/03 06:55:07;;;;;;;4.03;0.93;;;7.10;99.90;;;;;;5032455;28;20030;-66
2023/11/03 06:57:33;;;;;;;8.05;0.90;;;7.20;99.90;;;;;;5030041;28;20074;-67
2023/11/03 06:59:59;;;;;;;9.35;1.48;;;7.30;99.90;;;;;;5030335;28;20025;-67
2023/11/03 07:02:25;;;;;;;10.38;2.40;;;7.30;99.90;;;;;;5045401;28;20026;-66
2023/11/03 07:04:52;;;;;;;12.75;1.83;;;7.30;99.90;;;;;;5030486;28;20047;-67
2023/11/03 07:07:18;;;;;;;8.85;1.27;;;7.30;99.90;;;;;;5029754;28;20036;-66
2023/11/03 07:09:44;;;;;;;8.70;1.33;;;7.40;99.90;;;;;;5031845;28;20021;-68
2023/11/03 07:12:10;;;;;;;6.47;1.83;;;7.40;99.90;;;;;;5027466;28;20041;-66
2023/11/03 07:14:36;;;;;;;6.68;1.15;;;7.40;99.90;;;;;;5029953;28;20029;-66
2023/11/03 07:17:02;;;;;;;5.22;1.40;;;7.50;99.90;;;;;;5027728;28;20025;-66
2023/11/03 07:19:28;;;;;;;9.43;1.50;;;7.50;99.90;;;;;;5030767;28;20022;-67
2023/11/03 07:21:54;;;;;;;6.68;0.93;;;7.60;99.90;;;;;;5046092;28;20375;-66
2023/11/03 07:24:23;;;;;;;6.40;1.42;;;7.80;99.90;;;;;;5029338;28;20034;-66
2023/11/03 07:26:52;;;;;;;6.88;1.75;;;7.90;99.90;;;;;;5030869;28;20722;-66
2023/11/03 07:29:18;;;;;;;3.70;0.85;;;8.10;99.90;;;;;;5032560;28;20490;-67
2023/11/03 07:31:44;;;;;;;8.70;1.67;;;8.30;99.90;;;;;;5028309;28;20029;-67
2023/11/03 07:34:10;;;;;;;10.80;1.63;;;8.50;99.90;;;;;;5029095;28;20025;-67
2023/11/03 07:36:36;;;;;;;10.20;1.15;;;8.60;99.90;;;;;;5031808;28;20026;-66
2023/11/03 07:39:05;;;;;;;5.22;1.20;;;8.60;99.90;;;;;;5024523;28;20025;-67
2023/11/03 07:41:32;;;;;;;4.47;1.13;;;8.60;99.90;;;;;;5026497;28;20037;-67
2023/11/03 07:43:57;;;;;;;6.65;1.13;;;8.70;99.90;;;;;;5016552;28;20068;-67
2023/11/03 07:46:23;;;;;;;9.07;1.30;;;8.70;99.90;;;;;;5030503;28;20032;-67
2023/11/03 07:48:49;;;;;;;9.75;1.48;;;8.70;99.90;;;;;;5031873;28;20025;-67
2023/11/03 07:51:14;;;;;;;8.23;1.35;;;8.70;99.90;;;;;;5029663;28;20033;-67
2023/11/03 07:53:40;;;;;;;12.63;1.95;;;8.70;99.90;;;;;;5030618;28;20116;-67
2023/11/03 07:56:06;;;;;;;7.75;1.52;;;8.70;99.90;;;;;;5031000;28;20021;-66
2023/11/03 07:58:35;;;;;;;5.68;2.13;;;8.70;99.90;;;;;;5030637;28;20040;-67
2023/11/03 08:01:01;;;;;;;7.05;1.60;;;8.70;99.90;;;;;;5028145;28;20506;-66
2023/11/03 08:03:28;;;;;;;7.18;1.50;;;8.80;99.90;;;;;;5025982;28;20026;-67
2023/11/03 08:05:54;;;;;;;8.40;1.30;;;8.80;99.90;;;;;;5026474;28;20053;-66
2023/11/03 08:08:20;;;;;;;11.50;1.50;;;8.80;99.90;;;;;;5031431;28;20041;-67
2023/11/03 08:10:46;;;;;;;11.45;2.58;;;8.90;99.90;;;;;;5031469;28;20025;-67
2023/11/03 08:13:12;;;;;;;12.57;1.85;;;8.90;99.90;;;;;;5023882;28;20499;-67
2023/11/03 08:15:38;;;;;;;8.98;1.73;;;9.00;99.90;;;;;;5044724;28;20053;-66
2023/11/03 08:18:07;;;;;;;7.57;1.75;;;9.10;99.90;;;;;;5029383;28;20054;-66
2023/11/03 08:20:33;;;;;;;6.93;1.85;;;9.10;99.90;;;;;;5030885;28;20121;-67
2023/11/03 08:22:59;;;;;;;13.80;1.67;;;9.10;99.90;;;;;;5023158;28;20025;-65
2023/11/03 08:25:27;;;;;;;12.73;1.35;;;9.10;99.90;;;;;;5027608;28;20024;-67
2023/11/03 08:27:52;;;;;;;12.32;1.58;;;9.20;99.90;;;;;;5025241;28;20038;-67
2023/11/03 08:30:18;;;;;;;10.55;1.52;;;9.20;99.90;;;;;;5027240;28;20605;-68
2023/11/03 08:32:46;;;;;;;7.63;1.48;;;9.20;99.90;;;;;;5026100;28;20061;-66
2023/11/03 08:35:12;;;;;;;10.55;1.35;;;9.20;99.90;;;;;;5030406;28;20125;-67
2023/11/03 08:37:40;;;;;;;11.98;1.85;;;9.20;99.90;;;;;;5027000;28;20025;-68
2023/11/03 08:40:08;;;;;;;4.07;1.33;;;9.20;99.90;;;;;;5024950;28;20018;-67
2023/11/03 08:42:34;;;;;;;7.53;2.35;;;9.30;99.90;;;;;;5026531;28;20082;-67
2023/11/03 08:45:00;;;;;;;5.63;1.17;;;9.40;99.90;;;;;;5030423;28;20045;-66
2023/11/03 08:47:27;;;;;;;9.35;1.50;;;9.40;99.90;;;;;;5024038;28;20042;-67
2023/11/03 08:49:52;;;;;;;8.82;1.25;;;9.50;99.90;;;;;;5028431;28;20048;-66
2023/11/03 08:52:18;;;;;;;9.30;2.05;;;9.50;99.90;;;;;;5026756;28;20041;-67
2023/11/03 08:54:44;;;;;;;8.82;1.52;;;9.60;99.90;;;;;;5030655;28;20505;-67
2023/11/03 08:57:10;;;;;;;13.52;1.67;;;9.60;99.90;;;;;;5024034;28;20026;-67
2023/11/03 08:59:37;;;;;;;8.98;1.63;;;9.70;99.90;;;;;;5028060;28;20022;-68
2023/11/03 09:02:04;;;;;;;9.18;1.60;;;9.80;99.90;;;;;;5021215;28;20053;-67
2023/11/03 09:04:29;;;;;;;7.03;1.50;;;9.80;99.90;;;;;;5040546;28;20029;-65
2023/11/03 09:06:55;;;;;;;17.23;1.33;;;9.90;99.90;;;;;;5025376;28;20549;-66
2023/11/03 09:09:21;;;;;;;4.68;1.60;;;9.90;99.90;;;;;;5021360;28;20034;-67
2023/11/03 09:13:51;;;;;;;5.20;1.50;;;10.10;99.90;;;;;;5093385;27;20526;-67
2023/11/03 09:16:19;;;;;;;6.60;1.38;;;10.20;99.90;;;;;;5082498;28;20116;-66
2023/11/03 09:18:45;;;;;;;11.98;2.13;;;10.30;99.90;;;;;;5078015;28;20025;-68
2023/11/03 09:21:10;;;;;;;5.32;1.40;;;10.30;99.90;;;;;;5060025;28;20021;-66
2023/11/03 09:23:36;;;;;;;11.18;1.25;;;10.40;99.90;;;;;;5065553;28;20024;-66
2023/11/03 09:26:04;;;;;;;8.70;1.50;;;10.60;99.90;;;;;;5063952;28;20484;-67
2023/11/03 09:28:29;;;;;;;7.35;1.60;;;10.70;99.90;;;;;;5061936;28;20025;-67
2023/11/03 09:30:55;;;;;;;6.20;1.30;;;11.00;99.90;;;;;;5065487;28;20072;-67
2023/11/03 09:33:21;;;;;;;7.40;1.70;;;11.20;99.90;;;;;;5068588;28;20039;-68
2023/11/03 09:35:46;;;;;;;8.50;1.80;;;11.50;99.90;;;;;;5087375;28;20016;-67
2023/11/03 09:38:13;;;;;;;9.18;2.00;;;11.70;99.90;;;;;;5062930;28;20020;-68
2023/11/03 09:40:39;;;;;;;7.40;1.63;;;11.70;99.90;;;;;;5061362;28;20056;-68
2023/11/03 09:43:05;;;;;;;8.38;1.65;;;11.90;99.90;;;;;;5064403;28;20032;-67
2023/11/03 09:45:33;;;;;;;9.15;1.63;;;12.20;99.90;;;;;;5038384;28;20248;-66
2023/11/03 09:48:00;;;;;;;8.80;1.42;;;12.40;99.90;;;;;;5056958;28;20557;-67
2023/11/03 09:50:26;;;;;;;7.60;1.65;;;12.50;99.90;;;;;;5050844;28;20037;-67
2023/11/03 09:52:55;;;;;;;7.47;1.65;;;12.50;99.90;;;;;;5046206;28;20545;-66
2023/11/03 09:55:21;;;;;;;5.72;2.50;;;12.70;99.90;;;;;;5050398;28;20076;-67
2023/11/03 09:57:57;;;;;;;7.75;1.50;;;12.90;99.90;;;;;;5046340;28;20047;-66
2023/11/03 10:00:23;;;;;;;8.13;1.50;;;12.90;99.90;;;;;;5042636;28;20438;-67
2023/11/03 10:02:49;;;;;;;7.30;1.55;;;12.90;99.90;;;;;;5049342;28;20040;-66
2023/11/03 10:05:16;;;;;;;8.35;2.20;;;12.80;99.90;;;;;;5047069;28;20404;-66
2023/11/03 10:08:02;;;;;;;16.75;2.60;;;12.70;99.90;;;;;;5043030;28;20025;-66
2023/11/03 10:10:29;;;;;;;8.88;2.05;;;12.50;99.90;;;;;;5049578;28;20049;-68
2023/11/03 10:12:57;;;;;;;8.90;2.53;;;12.60;99.90;;;;;;5054280;28;20033;-66
2023/11/03 10:15:24;;;;;;;9.63;1.77;;;12.60;99.90;;;;;;5047038;28;20031;-67
2023/11/03 10:17:50;;;;;;;5.78;1.90;;;12.70;99.90;;;;;;5044832;28;20021;-66
2023/11/03 10:20:20;;;;;;;7.82;1.95;;;12.70;99.90;;;;;;5050844;28;20540;-66
2023/11/03 10:22:47;;;;;;;4.22;2.00;;;12.80;99.90;;;;;;5057178;28;21868;-66
2023/11/03 10:25:14;;;;;;;5.85;1.60;;;12.80;99.90;;;;;;5033499;28;20017;-66
2023/11/03 10:27:39;;;;;;;19.27;9.18;;;12.70;99.90;;;;;;5037756;28;20025;-67
2023/11/03 10:30:06;;;;;;;14.40;3.45;;;12.70;99.90;;;;;;5033265;28;20083;-67
2023/11/03 10:32:33;;;;;;;11.27;3.38;;;12.70;99.90;;;;;;5032067;28;20495;-66
2023/11/03 10:35:05;;;;;;;5.00;2.17;;;12.80;99.90;;;;;;5035710;28;20079;-66
2023/11/03 10:37:35;;;;;;;9.07;4.55;;;12.70;99.90;;;;;;5041562;28;20534;-66
2023/11/03 10:40:02;;;;;;;7.28;2.15;;;12.70;99.90;;;;;;5035269;28;20434;-66
2023/11/03 10:42:29;;;;;;;3.28;1.58;;;12.70;99.90;;;;;;5026732;28;20170;-66
2023/11/03 10:45:03;;;;;;;18.35;2.58;;;12.60;99.90;;;;;;5024380;28;20058;-66
2023/11/03 10:47:31;;;;;;;4.10;0.90;;;12.50;99.90;;;;;;5029239;28;20044;-67
2023/11/03 10:50:05;;;;;;;4.25;1.50;;;12.30;99.90;;;;;;5034058;28;20484;-66
2023/11/03 10:52:57;;;;;;;16.13;3.00;;;12.20;99.90;;;;;;5036894;28;20462;-66
2023/11/03 10:55:29;;;;;;;12.13;3.38;;;12.00;99.90;;;;;;5023521;28;20021;-66
2023/11/03 10:57:58;;;;;;;44.38;16.38;;;12.00;99.90;;;;;;5032084;28;20024;-66
2023/11/03 11:00:30;;;;;;;30.67;11.05;;;12.00;99.90;;;;;;5027982;28;20219;-66
2023/11/03 11:03:14;;;;;;;30.40;11.45;;;11.90;99.90;;;;;;5006263;28;20041;-66
2023/11/03 11:05:59;;;;;;;18.42;4.97;;;12.00;99.90;;;;;;5042363;28;20064;-66
2023/11/03 11:08:28;;;;;;;16.10;4.63;;;12.10;99.90;;;;;;5028442;28;20107;-66
2023/11/03 11:10:54;;;;;;;6.57;2.22;;;12.20;99.90;;;;;;5040652;28;20843;-67
2023/11/03 11:13:21;;;;;;;10.07;2.03;;;12.20;99.90;;;;;;5049366;28;20027;-67
2023/11/03 11:15:59;;;;;;;5.10;1.38;;;12.30;99.90;;;;;;5037780;28;20087;-66
2023/11/03 11:18:28;;;;;;;10.15;4.03;;;12.20;99.90;;;;;;5024773;28;20029;-67
2023/11/03 11:20:55;;;;;;;17.52;4.95;;;12.30;99.90;;;;;;5038138;28;20381;-66
2023/11/03 11:23:23;;;;;;;8.93;2.50;;;12.20;99.90;;;;;;5056345;28;20036;-66
2023/11/03 11:25:52;;;;;;;10.18;4.50;;;12.10;99.90;;;;;;5037449;28;20531;-67
2023/11/03 11:28:31;;;;;;;7.93;3.45;;;12.20;99.90;;;;;;5035745;28;20067;-67
2023/11/03 11:30:57;;;;;;;12.02;3.78;;;12.20;99.90;;;;;;4998205;28;20049;-67
2023/11/03 11:33:28;;;;;;;10.73;4.18;;;12.10;99.90;;;;;;5024459;28;20035;-66
2023/11/03 11:35:54;;;;;;;7.65;3.50;;;12.10;99.90;;;;;;5027157;28;20124;-67
2023/11/03 11:38:20;;;;;;;12.95;5.65;;;12.20;99.90;;;;;;5020271;28;20111;-67
2023/11/03 11:40:46;;;;;;;12.40;4.88;;;12.20;99.90;;;;;;5033848;28;20542;-67
2023/11/03 11:43:12;;;;;;;6.60;2.22;;;12.20;99.90;;;;;;5033068;28;20441;-66
2023/11/03 11:45:42;;;;;;;7.38;2.10;;;12.20;99.90;;;;;;5024317;28;20410;-67
2023/11/03 11:48:14;;;;;;;7.93;2.33;;;12.30;99.90;;;;;;5044092;28;20544;-68
2023/11/03 11:50:41;;;;;;;4.80;2.05;;;12.30;99.90;;;;;;5042281;28;20082;-67
2023/11/03 11:53:10;;;;;;;8.98;1.35;;;12.30;99.90;;;;;;5039340;28;20036;-67
2023/11/03 11:55:35;;;;;;;11.52;2.88;;;12.30;99.90;;;;;;5028424;28;20108;-68
2023/11/03 11:58:02;;;;;;;11.48;3.28;;;12.30;99.90;;;;;;5027350;28;20562;-68
2023/11/03 12:00:28;;;;;;;17.88;7.00;;;12.50;99.90;;;;;;5030699;28;20052;-69
2023/11/03 12:02:54;;;;;;;18.45;4.78;;;12.40;99.90;;;;;;5043124;28;20103;-66
2023/11/03 12:05:21;;;;;;;14.63;4.68;;;12.40;99.90;;;;;;5028509;28;20036;-65
2023/11/03 12:07:47;;;;;;;27.38;10.02;;;12.50;99.90;;;;;;5040141;28;20111;-66
2023/11/03 12:10:13;;;;;;;10.40;3.33;;;12.60;99.90;;;;;;5039239;28;20108;-65
2023/11/03 12:12:39;;;;;;;8.23;1.63;;;12.60;99.90;;;;;;5042327;28;20032;-65
2023/11/03 12:15:06;;;;;;;4.43;1.23;;;12.60;99.90;;;;;;5038342;28;20055;-65
2023/11/03 12:17:33;;;;;;;2.95;0.95;;;12.50;99.90;;;;;;5046628;28;20035;-66
2023/11/03 12:19:58;;;;;;;4.72;1.17;;;12.60;99.90;;;;;;5036681;28;20051;-66
2023/11/03 12:22:28;;;;;;;12.52;1.75;;;12.50;99.90;;;;;;5040771;28;20032;-66
2023/11/03 12:24:55;;;;;;;5.30;1.40;;;12.50;99.90;;;;;;5043113;28;20087;-66
2023/11/03 12:27:22;;;;;;;9.65;2.65;;;12.40;99.90;;;;;;5042284;28;20029;-66
2023/11/03 12:29:48;;;;;;;9.05;2.15;;;12.20;99.90;;;;;;5045862;28;20037;-66
2023/11/03 12:32:15;;;;;;;9.60;2.30;;;12.20;99.90;;;;;;5039199;28;20490;-66
2023/11/03 12:34:42;;;;;;;8.10;2.20;;;12.10;99.90;;;;;;5043628;28;20065;-66
2023/11/03 12:37:09;;;;;;;8.70;3.15;;;12.10;99.90;;;;;;5037527;28;20029;-66
2023/11/03 12:39:48;;;;;;;8.40;1.92;;;12.10;99.90;;;;;;5060945;28;20024;-66
2023/11/03 12:42:18;;;;;;;9.10;2.30;;;12.10;99.90;;;;;;5036494;28;20025;-77
2023/11/03 12:45:03;;;;;;;8.07;1.92;;;12.20;99.90;;;;;;5045161;28;20464;-69
2023/11/03 12:47:37;;;;;;;8.82;1.80;;;12.30;99.90;;;;;;4999031;28;20053;-66
2023/11/03 12:50:17;;;;;;;6.28;1.65;;;12.30;99.90;;;;;;5011773;28;20095;-66